createdAt,value
2023-03-23T15:59:38.813Z,15.62
2023-03-23T16:02:06.952Z,15.62
2023-03-23T16:04:34.051Z,15.62
2023-03-23T16:07:01.269Z,15.62
2023-03-23T16:09:28.108Z,15.61
2023-03-23T16:11:54.948Z,15.59
2023-03-23T16:14:21.725Z,15.57
2023-03-23T16:16:52.729Z,15.58
2023-03-23T16:19:24.077Z,15.57
2023-03-23T16:21:50.978Z,15.56
2023-03-23T16:24:17.808Z,15.55
2023-03-23T16:26:44.810Z,15.54
2023-03-23T16:29:24.454Z,15.52
2023-03-23T16:32:01.519Z,15.51
2023-03-23T16:34:32.883Z,15.50
2023-03-23T16:36:59.753Z,15.47
2023-03-23T16:39:26.515Z,15.45
2023-03-23T16:41:53.316Z,15.43
2023-03-23T16:44:20.603Z,15.42
2023-03-23T16:46:47.447Z,15.41
2023-03-23T16:49:14.175Z,15.40
2023-03-23T16:51:42.891Z,15.38
2023-03-23T16:54:10.648Z,15.37
2023-03-23T16:56:38.297Z,15.34
2023-03-23T16:59:05.274Z,15.33
2023-03-23T17:01:32.136Z,15.32
2023-03-23T17:03:59.173Z,15.30
2023-03-23T17:06:26.096Z,15.27
2023-03-23T17:08:53.326Z,15.21
2023-03-23T17:11:20.677Z,15.18
2023-03-23T17:13:48.623Z,15.15
2023-03-23T17:16:15.557Z,15.14
2023-03-23T17:18:42.385Z,15.13
2023-03-23T17:21:09.284Z,15.14
2023-03-23T17:23:36.411Z,15.11
2023-03-23T17:26:04.187Z,15.08
2023-03-23T17:28:31.088Z,15.08
2023-03-23T17:30:58.272Z,15.09
2023-03-23T17:33:25.220Z,15.05
2023-03-23T17:35:52.274Z,15.01
2023-03-23T17:38:19.611Z,14.96
2023-03-23T17:40:46.473Z,14.88
2023-03-23T17:43:13.710Z,14.88
2023-03-23T17:45:46.491Z,14.89
2023-03-23T17:48:14.379Z,14.87
2023-03-23T17:50:41.246Z,14.85
2023-03-23T17:53:08.109Z,14.83
2023-03-23T17:55:34.912Z,14.83
2023-03-23T17:58:01.713Z,14.80
2023-03-23T18:00:29.125Z,14.74
2023-03-23T18:02:56.939Z,14.71
2023-03-23T18:05:24.609Z,14.75
2023-03-23T18:07:51.611Z,14.76
2023-03-23T18:10:18.481Z,14.80
2023-03-23T18:12:48.385Z,14.79
2023-03-23T18:15:15.229Z,14.79
2023-03-23T18:17:43.928Z,14.82
2023-03-23T18:20:11.065Z,14.81
2023-03-23T18:22:37.893Z,14.75
2023-03-23T18:25:05.619Z,14.74
2023-03-23T18:27:34.159Z,14.75
2023-03-23T18:30:02.656Z,14.79
2023-03-23T18:32:29.536Z,14.74
2023-03-23T18:34:56.523Z,14.74
2023-03-23T18:37:23.443Z,14.72
2023-03-23T18:39:50.611Z,14.71
2023-03-23T18:42:17.661Z,14.69
2023-03-23T18:44:48.150Z,14.70
2023-03-23T18:47:15.399Z,14.71
2023-03-23T18:49:42.292Z,14.74
2023-03-23T18:52:09.329Z,14.76
2023-03-23T18:54:38.268Z,14.78
2023-03-23T18:57:05.283Z,14.81
2023-03-23T18:59:34.399Z,14.81
2023-03-23T19:02:01.557Z,14.81
2023-03-23T19:04:31.495Z,14.80
2023-03-23T19:07:01.775Z,14.80
2023-03-23T19:09:30.820Z,14.79
2023-03-23T19:11:57.728Z,14.80
2023-03-23T19:14:24.712Z,14.79
2023-03-23T19:16:52.483Z,14.76
2023-03-23T19:19:20.501Z,14.79
2023-03-23T19:21:47.763Z,14.80
2023-03-23T19:24:14.874Z,14.77
2023-03-23T19:26:44.834Z,14.77
2023-03-23T19:29:26.577Z,14.75
2023-03-23T19:31:56.697Z,14.76
2023-03-23T19:34:25.787Z,14.77
2023-03-23T19:36:56.185Z,14.79
2023-03-23T19:39:26.596Z,14.78
2023-03-23T19:41:53.642Z,14.77
2023-03-23T19:44:20.645Z,14.78
2023-03-23T19:46:48.156Z,14.77
2023-03-23T19:49:15.512Z,14.76
2023-03-23T19:51:42.475Z,14.74
2023-03-23T19:54:09.356Z,14.72
2023-03-23T19:56:36.738Z,14.70
2023-03-23T19:59:05.202Z,14.69
2023-03-23T20:01:32.822Z,14.68
2023-03-23T20:04:01.880Z,14.63
2023-03-23T20:06:29.952Z,14.62
2023-03-23T20:09:00.080Z,14.58
2023-03-23T20:11:28.772Z,14.50
2023-03-23T20:13:56.252Z,14.44
2023-03-23T20:16:24.802Z,14.41
2023-03-23T20:18:53.324Z,14.38
2023-03-23T20:21:22.691Z,14.35
2023-03-23T20:23:54.261Z,14.31
2023-03-23T20:26:29.660Z,14.25
2023-03-23T20:28:57.071Z,14.15
2023-03-23T20:34:03.106Z,14.08
2023-03-23T20:36:40.424Z,14.01
2023-03-23T20:39:12.365Z,13.98
2023-03-23T20:41:40.327Z,13.96
2023-03-23T20:44:14.375Z,13.89
2023-03-23T20:46:47.369Z,13.87
2023-03-23T20:49:15.653Z,13.79
2023-03-23T20:51:44.636Z,13.77
2023-03-23T20:54:16.279Z,13.72
2023-03-23T20:56:46.062Z,13.70
2023-03-23T20:59:15.501Z,13.72
2023-03-23T21:01:43.709Z,13.77
2023-03-23T21:04:18.114Z,13.76
2023-03-23T21:06:48.916Z,13.77
2023-03-23T21:09:17.429Z,13.70
2023-03-23T21:11:46.107Z,13.71
2023-03-23T21:14:14.036Z,13.71
2023-03-23T21:16:41.974Z,13.71
2023-03-23T21:19:09.724Z,13.73
2023-03-23T21:21:36.705Z,13.76
2023-03-23T21:24:03.887Z,13.79
2023-03-23T21:26:30.812Z,13.79
2023-03-23T21:29:01.063Z,13.80
2023-03-23T21:31:31.534Z,13.79
2023-03-23T21:33:59.363Z,13.76
2023-03-23T21:36:27.411Z,13.76
2023-03-23T21:38:55.657Z,13.77
2023-03-23T21:41:24.115Z,13.83
2023-03-23T21:43:51.842Z,13.86
2023-03-23T21:46:18.745Z,13.83
2023-03-23T21:48:51.567Z,13.82
2023-03-23T21:51:26.480Z,13.77
2023-03-23T21:53:55.003Z,13.74
2023-03-23T21:56:25.365Z,13.73
2023-03-23T21:58:52.423Z,13.66
2023-03-23T22:01:20.123Z,13.59
2023-03-23T22:03:47.260Z,13.56
2023-03-23T22:06:18.937Z,13.57
2023-03-23T22:08:47.520Z,13.55
2023-03-23T22:11:19.636Z,13.57
2023-03-23T22:13:48.845Z,13.58
2023-03-23T22:16:18.450Z,13.60
2023-03-23T22:18:48.728Z,13.57
2023-03-23T22:21:17.431Z,13.57
2023-03-23T22:23:46.143Z,13.57
2023-03-23T22:26:15.309Z,13.60
2023-03-23T22:28:43.715Z,13.62
2023-03-23T22:31:18.817Z,13.64
2023-03-23T22:33:48.435Z,13.60
2023-03-23T22:36:17.584Z,13.61
2023-03-23T22:38:47.565Z,13.60
2023-03-23T22:41:23.360Z,13.59
2023-03-23T22:43:52.068Z,13.58
2023-03-23T22:46:19.380Z,13.60
2023-03-23T22:48:46.844Z,13.59
2023-03-23T22:51:16.507Z,13.58
2023-03-23T22:53:44.572Z,13.55
2023-03-23T22:56:12.464Z,13.50
2023-03-23T22:58:39.678Z,13.48
2023-03-23T23:01:15.564Z,13.44
2023-03-23T23:03:42.600Z,13.39
2023-03-23T23:06:13.224Z,13.34
2023-03-23T23:08:41.249Z,13.31
2023-03-23T23:11:11.935Z,13.25
2023-03-23T23:13:40.942Z,13.23
2023-03-23T23:16:09.939Z,13.18
2023-03-23T23:18:38.452Z,13.20
2023-03-23T23:21:11.692Z,13.21
2023-03-23T23:23:38.683Z,13.19
2023-03-23T23:26:07.215Z,13.14
2023-03-23T23:28:35.516Z,13.15
2023-03-23T23:31:02.928Z,13.16
2023-03-23T23:33:30.136Z,13.15
2023-03-23T23:35:57.064Z,13.12
2023-03-23T23:38:24.053Z,13.12
2023-03-23T23:40:51.008Z,13.12
2023-03-23T23:43:17.983Z,13.10
2023-03-23T23:45:44.863Z,13.07
2023-03-23T23:48:12.535Z,13.05
2023-03-23T23:50:39.509Z,13.09
2023-03-23T23:53:06.386Z,13.07
2023-03-23T23:55:33.375Z,13.08
2023-03-23T23:58:00.543Z,13.02
